createdAt,value
2023-09-02T00:01:44.803Z,85.45
2023-09-02T00:04:06.687Z,85.51
2023-09-02T00:06:28.417Z,85.13
2023-09-02T00:08:50.127Z,85.19
2023-09-02T00:11:11.776Z,85.25
2023-09-02T00:13:33.500Z,85.38
2023-09-02T00:15:56.396Z,85.07
2023-09-02T00:18:18.120Z,85.14
2023-09-02T00:20:39.844Z,85.12
2023-09-02T00:23:01.573Z,84.96
2023-09-02T00:25:26.113Z,85.10
2023-09-02T00:27:47.781Z,84.89
2023-09-02T00:30:10.253Z,84.86
2023-09-02T00:32:31.944Z,85.12
2023-09-02T00:34:53.625Z,84.93
2023-09-02T00:37:15.484Z,84.89
2023-09-02T00:39:37.683Z,84.78
2023-09-02T00:42:01.842Z,84.79
2023-09-02T00:44:23.627Z,84.97
2023-09-02T00:46:46.834Z,84.82
2023-09-02T00:49:08.655Z,84.55
2023-09-02T00:51:30.352Z,84.73
2023-09-02T00:53:52.046Z,84.52
2023-09-02T00:56:16.103Z,84.67
2023-09-02T00:58:37.833Z,84.70
2023-09-02T01:01:00.534Z,84.96
2023-09-02T01:03:22.579Z,84.93
2023-09-02T01:05:44.560Z,84.90
2023-09-02T01:08:07.022Z,84.95
2023-09-02T01:10:30.514Z,85.02
2023-09-02T01:12:52.429Z,85.13
2023-09-02T01:15:14.140Z,85.10
2023-09-02T01:17:35.894Z,85.12
2023-09-02T01:20:00.853Z,85.04
2023-09-02T01:23:09.394Z,85.13
2023-09-02T01:26:21.081Z,85.13
2023-09-02T01:28:47.377Z,84.95
2023-09-02T01:31:16.246Z,85.29
2023-09-02T01:33:41.304Z,85.22
2023-09-02T01:36:05.091Z,85.10
2023-09-02T01:38:29.641Z,85.00
2023-09-02T01:40:54.752Z,84.93
2023-09-02T01:43:21.910Z,85.06
2023-09-02T01:45:44.677Z,85.08
2023-09-02T01:48:08.406Z,85.03
2023-09-02T01:50:34.021Z,85.05
2023-09-02T01:52:58.639Z,85.23
2023-09-02T01:55:21.194Z,84.93
2023-09-02T01:57:45.366Z,85.12
2023-09-02T02:00:08.157Z,85.16
2023-09-02T02:02:33.633Z,85.17
2023-09-02T02:05:01.942Z,85.04
2023-09-02T02:07:32.810Z,85.16
2023-09-02T02:10:00.487Z,85.23
2023-09-02T02:12:23.371Z,85.00
2023-09-02T02:14:48.272Z,85.02
2023-09-02T02:17:10.344Z,85.25
2023-09-02T02:19:32.442Z,85.28
2023-09-02T02:21:54.956Z,85.25
2023-09-02T02:24:16.660Z,85.12
2023-09-02T02:26:38.286Z,85.33
2023-09-02T02:29:00.058Z,85.49
2023-09-02T02:31:21.730Z,85.67
2023-09-02T02:33:43.464Z,85.43
2023-09-02T02:36:06.731Z,85.34
2023-09-02T02:38:29.438Z,85.15
2023-09-02T02:40:51.074Z,85.15
2023-09-02T02:43:12.732Z,85.06
2023-09-02T02:45:35.093Z,85.23
2023-09-02T02:47:58.740Z,85.16
2023-09-02T02:50:20.513Z,85.04
2023-09-02T02:52:42.372Z,85.06
2023-09-02T02:55:04.851Z,84.94
2023-09-02T02:57:26.801Z,84.81
2023-09-02T02:59:52.558Z,85.08
2023-09-02T03:02:14.603Z,85.10
2023-09-02T03:04:36.366Z,84.99
2023-09-02T03:06:58.080Z,85.25
2023-09-02T03:09:19.857Z,85.16
2023-09-02T03:11:45.774Z,85.36
2023-09-02T03:14:07.421Z,85.25
2023-09-02T03:16:29.853Z,85.46
2023-09-02T03:18:54.388Z,85.53
2023-09-02T03:21:16.179Z,85.46
2023-09-02T03:23:37.840Z,85.58
2023-09-02T03:26:17.738Z,85.51
2023-09-02T03:28:41.808Z,85.57
2023-09-02T03:31:11.687Z,85.46
2023-09-02T03:33:37.112Z,85.49
2023-09-02T03:36:01.030Z,85.57
2023-09-02T03:38:22.679Z,85.65
2023-09-02T03:40:44.447Z,85.57
2023-09-02T03:43:06.933Z,85.65
2023-09-02T03:45:28.651Z,85.52
2023-09-02T03:47:51.382Z,85.70
2023-09-02T03:50:14.011Z,85.62
2023-09-02T03:52:35.686Z,85.64
2023-09-02T03:54:59.126Z,85.40
2023-09-02T03:57:21.127Z,85.41
2023-09-02T03:59:42.790Z,85.27
2023-09-02T04:02:04.539Z,85.67
2023-09-02T04:04:27.101Z,85.41
2023-09-02T04:06:48.888Z,85.44
2023-09-02T04:09:10.952Z,85.45
2023-09-02T04:11:32.933Z,85.45
2023-09-02T04:13:55.534Z,85.27
2023-09-02T04:16:17.248Z,85.22
2023-09-02T04:18:39.572Z,85.41
2023-09-02T04:21:03.998Z,85.38
2023-09-02T04:23:27.476Z,85.27
2023-09-02T04:25:57.976Z,85.94
2023-09-02T04:28:21.036Z,85.52
2023-09-02T04:30:44.877Z,85.60
2023-09-02T04:33:07.928Z,85.22
2023-09-02T04:35:30.175Z,85.62
2023-09-02T04:37:52.177Z,85.49
2023-09-02T04:40:15.375Z,85.35
2023-09-02T04:42:42.186Z,85.82
2023-09-02T04:45:04.767Z,85.64
2023-09-02T04:47:27.514Z,85.78
2023-09-02T04:49:51.226Z,85.78
2023-09-02T04:52:12.888Z,85.91
2023-09-02T04:54:34.584Z,85.43
2023-09-02T04:56:56.354Z,85.68
2023-09-02T04:59:18.099Z,85.63
2023-09-02T05:01:41.953Z,85.65
2023-09-02T05:04:03.886Z,85.69
2023-09-02T05:06:25.622Z,85.82
2023-09-02T05:08:55.156Z,85.94
2023-09-02T05:11:18.119Z,86.00
2023-09-02T05:13:39.925Z,86.11
2023-09-02T05:16:02.339Z,86.09
2023-09-02T05:18:24.292Z,86.14
2023-09-02T05:20:48.782Z,86.13
2023-09-02T05:23:13.958Z,86.29
2023-09-02T05:25:35.915Z,86.26
2023-09-02T05:27:59.591Z,86.22
2023-09-02T05:30:21.308Z,86.25
2023-09-02T05:32:42.995Z,86.37
2023-09-02T05:35:05.403Z,86.62
2023-09-02T05:37:27.072Z,86.68
2023-09-02T05:39:48.880Z,86.71
2023-09-02T05:42:10.791Z,86.75
2023-09-02T05:44:35.714Z,86.67
2023-09-02T05:46:57.401Z,86.61
2023-09-02T05:49:19.580Z,86.73
2023-09-02T05:51:41.588Z,86.86
2023-09-02T05:54:03.993Z,86.93
2023-09-02T05:56:26.648Z,86.85
2023-09-02T05:58:48.470Z,86.95
2023-09-02T06:01:10.217Z,86.65
2023-09-02T06:03:32.223Z,86.73
2023-09-02T06:05:53.934Z,86.96
2023-09-02T06:08:16.458Z,86.66
2023-09-02T06:10:39.179Z,86.85
2023-09-02T06:13:00.967Z,87.05
2023-09-02T06:15:22.877Z,87.17
2023-09-02T06:17:44.632Z,87.44
2023-09-02T06:20:07.533Z,87.11
2023-09-02T06:22:29.411Z,87.24
2023-09-02T06:24:51.543Z,87.08
2023-09-02T06:27:13.222Z,87.21
2023-09-02T06:29:35.121Z,87.08
2023-09-02T06:31:56.953Z,87.08
2023-09-02T06:34:23.932Z,87.24
2023-09-02T06:36:46.462Z,87.35
2023-09-02T06:39:08.110Z,87.37
2023-09-02T06:41:29.780Z,87.55
2023-09-02T06:43:51.887Z,87.39
2023-09-02T06:46:20.879Z,87.51
2023-09-02T06:48:43.006Z,87.48
2023-09-02T06:51:04.858Z,87.45
2023-09-02T06:53:26.617Z,87.72
2023-09-02T06:55:48.280Z,87.88
2023-09-02T06:58:09.973Z,87.95
2023-09-02T07:00:31.696Z,87.94
2023-09-02T07:02:53.459Z,87.92
2023-09-02T07:05:15.192Z,87.87
2023-09-02T07:07:39.210Z,87.78
2023-09-02T07:10:02.000Z,87.61
2023-09-02T07:12:23.652Z,87.60
2023-09-02T07:14:45.669Z,87.24
2023-09-02T07:17:07.350Z,87.29
2023-09-02T07:19:28.966Z,86.99
2023-09-02T07:21:51.013Z,87.24
2023-09-02T07:24:12.672Z,86.94
2023-09-02T07:26:34.365Z,86.61
2023-09-02T07:28:56.285Z,86.82
2023-09-02T07:31:18.268Z,86.68
2023-09-02T07:33:42.649Z,86.54
2023-09-02T07:36:14.617Z,86.68
2023-09-02T07:38:40.175Z,86.74
2023-09-02T07:41:02.527Z,86.52
2023-09-02T07:43:24.315Z,86.67
2023-09-02T07:45:46.068Z,86.75
2023-09-02T07:48:07.778Z,86.34
2023-09-02T07:50:29.546Z,86.54
2023-09-02T07:52:51.329Z,86.65
2023-09-02T07:55:13.032Z,86.69
2023-09-02T07:57:34.777Z,86.39
2023-09-02T07:59:56.513Z,86.57
2023-09-02T08:02:18.203Z,86.22
2023-09-02T08:04:39.987Z,86.07
2023-09-02T08:07:01.700Z,85.93
2023-09-02T08:09:23.408Z,86.41
2023-09-02T08:11:45.049Z,86.37
2023-09-02T08:14:06.788Z,86.41
2023-09-02T08:16:28.464Z,86.47
2023-09-02T08:18:50.107Z,85.77
2023-09-02T08:21:12.479Z,85.89
2023-09-02T08:23:34.133Z,85.02
2023-09-02T08:25:55.835Z,84.75
2023-09-02T08:28:17.684Z,84.76
2023-09-02T08:30:42.752Z,84.41
2023-09-02T08:33:04.997Z,84.82
2023-09-02T08:35:26.849Z,84.95
2023-09-02T08:37:48.584Z,84.97
2023-09-02T08:40:10.598Z,85.19
2023-09-02T08:42:35.828Z,85.41
2023-09-02T08:45:00.562Z,85.45
2023-09-02T08:47:25.601Z,85.85
2023-09-02T08:49:47.807Z,85.83
2023-09-02T08:52:10.732Z,85.81
2023-09-02T08:54:33.953Z,85.56
2023-09-02T08:56:58.920Z,85.71
2023-09-02T08:59:21.329Z,86.00
2023-09-02T09:01:46.852Z,85.91
2023-09-02T09:04:09.678Z,86.37
2023-09-02T09:06:34.969Z,86.39
2023-09-02T09:08:58.246Z,85.81
2023-09-02T09:11:23.951Z,86.01
2023-09-02T09:13:47.536Z,86.15
2023-09-02T09:16:09.559Z,86.21
2023-09-02T09:18:31.703Z,86.30
2023-09-02T09:20:54.911Z,86.39
2023-09-02T09:23:16.959Z,86.33
2023-09-02T09:25:38.973Z,86.36
2023-09-02T09:28:12.345Z,86.48
2023-09-02T09:30:34.178Z,86.43
2023-09-02T09:33:02.147Z,86.13
2023-09-02T09:35:23.911Z,86.06
2023-09-02T09:37:57.110Z,86.37
2023-09-02T09:40:31.302Z,86.15
2023-09-02T09:42:53.106Z,85.70
2023-09-02T09:45:14.747Z,85.54
2023-09-02T09:47:36.429Z,85.60
2023-09-02T09:50:18.279Z,85.35
2023-09-02T09:52:40.074Z,85.44
2023-09-02T09:55:01.754Z,85.34
2023-09-02T09:57:38.224Z,85.42
2023-09-02T10:00:00.281Z,85.42
2023-09-02T10:02:23.165Z,85.25
2023-09-02T10:04:55.728Z,84.71
2023-09-02T10:07:28.255Z,83.82
2023-09-02T10:09:50.222Z,84.03
2023-09-02T10:12:19.820Z,84.04
2023-09-02T10:14:50.178Z,83.89
2023-09-02T10:17:12.374Z,84.20
2023-09-02T10:19:35.907Z,84.21
2023-09-02T10:21:59.076Z,84.08
2023-09-02T10:24:21.842Z,84.27
2023-09-02T10:26:52.998Z,83.87
2023-09-02T10:29:22.427Z,83.96
2023-09-02T10:31:50.183Z,83.90
2023-09-02T10:34:18.937Z,83.61
2023-09-02T10:36:48.332Z,83.60
2023-09-02T10:39:22.704Z,83.68
2023-09-02T10:41:48.813Z,83.47
2023-09-02T10:44:12.897Z,82.63
2023-09-02T10:46:34.867Z,82.48
2023-09-02T10:48:59.950Z,82.25
2023-09-02T10:51:23.090Z,82.18
2023-09-02T10:53:54.493Z,82.53
2023-09-02T10:56:26.607Z,82.56
2023-09-02T10:58:48.636Z,82.45
2023-09-02T11:01:10.580Z,81.77
2023-09-02T11:03:50.306Z,81.89
2023-09-02T11:06:13.928Z,82.12
2023-09-02T11:08:54.946Z,81.25
2023-09-02T11:11:19.056Z,81.32
2023-09-02T11:14:10.163Z,81.53
2023-09-02T11:16:32.877Z,81.10
2023-09-02T11:18:54.961Z,81.46
2023-09-02T11:21:40.536Z,80.54
2023-09-02T11:24:23.104Z,80.69
2023-09-02T11:27:01.248Z,80.57
2023-09-02T11:29:30.610Z,80.12
2023-09-02T11:32:01.045Z,79.13
2023-09-02T11:34:24.698Z,78.98
2023-09-02T11:36:47.171Z,78.68
2023-09-02T11:39:09.064Z,77.77
2023-09-02T11:41:30.715Z,77.64
2023-09-02T11:43:52.479Z,77.58
2023-09-02T11:46:15.252Z,77.43
2023-09-02T11:48:37.489Z,77.19
2023-09-02T11:51:00.305Z,77.12
2023-09-02T11:53:22.235Z,76.70
2023-09-02T11:55:45.301Z,77.02
2023-09-02T11:58:11.547Z,76.77
2023-09-02T12:00:33.706Z,77.29
2023-09-02T12:03:00.341Z,76.59
2023-09-02T12:05:22.775Z,75.34
2023-09-02T12:07:47.723Z,74.59
2023-09-02T12:10:12.125Z,75.06
2023-09-02T12:12:36.025Z,75.59
2023-09-02T12:14:58.738Z,75.18
2023-09-02T12:17:20.809Z,74.64
2023-09-02T12:19:42.858Z,74.00
2023-09-02T12:22:05.355Z,73.57
2023-09-02T12:24:28.405Z,73.56
2023-09-02T12:26:52.158Z,73.78
2023-09-02T12:29:23.041Z,74.66
2023-09-02T12:32:01.964Z,74.37
2023-09-02T12:34:25.230Z,74.41
2023-09-02T12:36:47.070Z,74.19
2023-09-02T12:39:23.993Z,74.11
2023-09-02T12:41:45.808Z,74.72
2023-09-02T12:44:16.540Z,74.33
2023-09-02T12:46:38.472Z,74.78
2023-09-02T12:49:00.364Z,74.46
2023-09-02T12:51:29.203Z,73.36
2023-09-02T12:53:51.534Z,72.41
2023-09-02T12:56:13.285Z,72.12
2023-09-02T12:58:35.069Z,72.02
2023-09-02T13:01:01.082Z,70.83
2023-09-02T13:03:23.169Z,70.79
2023-09-02T13:05:45.233Z,70.61
2023-09-02T13:08:06.957Z,70.51
2023-09-02T13:10:29.317Z,70.04
2023-09-02T13:12:51.060Z,70.02
2023-09-02T13:15:14.009Z,69.62
2023-09-02T13:17:36.826Z,69.61
2023-09-02T13:19:58.893Z,70.22
2023-09-02T13:22:20.959Z,70.72
2023-09-02T13:24:48.004Z,71.39
2023-09-02T13:27:09.805Z,71.46
2023-09-02T13:29:33.095Z,71.61
2023-09-02T13:31:56.681Z,72.15
2023-09-02T13:34:31.315Z,72.05
2023-09-02T13:37:02.996Z,72.33
2023-09-02T13:39:24.823Z,72.60
2023-09-02T13:41:46.756Z,72.61
2023-09-02T13:44:12.143Z,72.61
2023-09-02T13:46:34.643Z,72.59
2023-09-02T13:48:56.448Z,72.79
2023-09-02T13:51:23.175Z,72.23
2023-09-02T13:53:45.058Z,72.09
2023-09-02T13:56:06.784Z,71.02
2023-09-02T13:58:35.698Z,70.02
2023-09-02T14:00:57.486Z,70.33
2023-09-02T14:03:26.882Z,69.67
2023-09-02T14:05:52.826Z,67.87
2023-09-02T14:08:19.776Z,68.04
2023-09-02T14:10:41.613Z,67.82
2023-09-02T14:13:10.154Z,67.99
2023-09-02T14:15:32.532Z,68.13
2023-09-02T14:17:54.361Z,66.38
2023-09-02T14:20:16.189Z,66.72
2023-09-02T14:22:38.010Z,66.11
2023-09-02T14:24:59.752Z,64.57
2023-09-02T14:27:21.915Z,64.81
2023-09-02T14:29:43.980Z,65.30
2023-09-02T14:32:07.427Z,65.58
2023-09-02T14:34:29.299Z,65.41
2023-09-02T14:36:51.015Z,65.49
2023-09-02T14:39:15.005Z,64.88
2023-09-02T14:41:36.945Z,63.91
2023-09-02T14:43:58.744Z,64.11
2023-09-02T14:46:20.523Z,64.20
2023-09-02T14:48:43.249Z,64.18
2023-09-02T14:51:05.130Z,62.76
2023-09-02T14:53:27.086Z,63.98
2023-09-02T14:55:52.346Z,64.56
2023-09-02T14:58:17.133Z,64.67
2023-09-02T15:00:38.898Z,64.57
2023-09-02T15:03:02.751Z,64.64
2023-09-02T15:05:27.471Z,64.52
2023-09-02T15:07:52.790Z,64.22
2023-09-02T15:10:26.221Z,63.16
2023-09-02T15:12:48.196Z,62.80
2023-09-02T15:15:10.208Z,62.96
2023-09-02T15:17:33.004Z,62.12
2023-09-02T15:19:56.540Z,62.53
2023-09-02T15:22:20.183Z,62.75
2023-09-02T15:24:42.776Z,62.10
2023-09-02T15:27:05.431Z,61.80
2023-09-02T15:29:28.231Z,61.66
2023-09-02T15:31:52.891Z,61.54
2023-09-02T15:34:16.769Z,61.43
2023-09-02T15:36:39.287Z,61.96
2023-09-02T15:39:01.688Z,62.27
2023-09-02T15:41:23.444Z,61.92
2023-09-02T15:43:45.225Z,61.69
2023-09-02T15:46:08.309Z,62.03
2023-09-02T15:48:30.011Z,61.83
2023-09-02T15:50:52.646Z,61.85
2023-09-02T15:53:15.745Z,61.46
2023-09-02T15:55:37.518Z,60.47
2023-09-02T15:57:59.244Z,60.50
2023-09-02T16:00:21.741Z,60.33
2023-09-02T16:02:44.603Z,60.44
2023-09-02T16:05:06.857Z,60.98
2023-09-02T16:07:28.614Z,61.63
2023-09-02T16:09:50.359Z,61.90
2023-09-02T16:12:12.004Z,62.29
2023-09-02T16:14:33.703Z,62.12
2023-09-02T16:17:02.762Z,62.18
2023-09-02T16:19:24.482Z,62.29
2023-09-02T16:21:46.215Z,62.75
2023-09-02T16:24:08.347Z,62.87
2023-09-02T16:26:30.073Z,62.41
2023-09-02T16:28:51.857Z,61.72
2023-09-02T16:31:13.637Z,61.91
2023-09-02T16:33:36.283Z,62.06
2023-09-02T16:35:59.922Z,62.24
2023-09-02T16:38:21.897Z,62.64
2023-09-02T16:40:43.738Z,62.20
2023-09-02T16:43:06.011Z,62.06
2023-09-02T16:45:28.187Z,61.73
2023-09-02T16:47:51.677Z,62.39
2023-09-02T16:50:16.145Z,62.12
2023-09-02T16:52:46.010Z,61.60
2023-09-02T16:55:10.846Z,62.02
2023-09-02T16:57:41.278Z,62.29
2023-09-02T17:00:06.467Z,62.39
2023-09-02T17:02:34.531Z,62.88
2023-09-02T17:04:59.466Z,63.06
2023-09-02T17:07:21.110Z,62.77
2023-09-02T17:09:42.922Z,62.62
2023-09-02T17:12:07.845Z,62.91
2023-09-02T17:14:29.789Z,62.73
2023-09-02T17:16:52.622Z,63.10
2023-09-02T17:19:20.264Z,63.71
2023-09-02T17:21:42.492Z,63.96
2023-09-02T17:24:04.790Z,64.03
2023-09-02T17:26:26.568Z,64.43
2023-09-02T17:28:49.418Z,64.61
2023-09-02T17:31:11.206Z,64.60
2023-09-02T17:33:35.143Z,65.21
2023-09-02T17:35:57.039Z,64.88
2023-09-02T17:38:19.192Z,65.54
2023-09-02T17:40:41.059Z,65.75
2023-09-02T17:43:02.936Z,65.82
2023-09-02T17:45:25.105Z,66.09
2023-09-02T17:47:49.114Z,66.06
2023-09-02T17:50:12.707Z,66.26
2023-09-02T17:52:34.409Z,66.88
2023-09-02T17:54:56.753Z,67.36
2023-09-02T17:57:18.695Z,67.12
2023-09-02T17:59:40.374Z,67.71
2023-09-02T18:02:06.146Z,67.65
2023-09-02T18:04:28.419Z,67.92
2023-09-02T18:06:50.060Z,68.23
2023-09-02T18:09:11.760Z,68.29
2023-09-02T18:11:34.280Z,68.39
2023-09-02T18:13:55.994Z,68.60
2023-09-02T18:16:17.785Z,69.05
2023-09-02T18:18:39.627Z,68.83
2023-09-02T18:21:01.308Z,69.29
2023-09-02T18:23:23.103Z,69.45
2023-09-02T18:25:44.826Z,69.34
2023-09-02T18:28:06.673Z,69.54
2023-09-02T18:30:28.338Z,69.64
2023-09-02T18:32:50.115Z,69.94
2023-09-02T18:35:11.933Z,70.23
2023-09-02T18:37:34.211Z,70.47
2023-09-02T18:39:55.934Z,70.35
2023-09-02T18:42:17.592Z,70.73
2023-09-02T18:44:39.270Z,70.89
2023-09-02T18:47:01.079Z,71.01
2023-09-02T18:49:22.775Z,71.22
2023-09-02T18:51:44.716Z,71.33
2023-09-02T18:54:06.549Z,71.42
2023-09-02T18:56:29.404Z,71.47
2023-09-02T18:58:51.095Z,71.65
2023-09-02T19:01:13.649Z,71.90
2023-09-02T19:03:35.440Z,71.67
2023-09-02T19:05:57.130Z,72.08
2023-09-02T19:08:19.121Z,72.39
2023-09-02T19:10:41.055Z,72.04
2023-09-02T19:13:03.105Z,72.47
2023-09-02T19:15:24.763Z,72.28
2023-09-02T19:17:46.704Z,72.36
2023-09-02T19:20:09.170Z,72.63
2023-09-02T19:22:40.888Z,72.92
2023-09-02T19:25:02.608Z,72.92
2023-09-02T19:27:24.679Z,72.92
2023-09-02T19:29:46.314Z,73.06
2023-09-02T19:32:09.784Z,73.07
2023-09-02T19:34:31.529Z,73.22
2023-09-02T19:36:53.191Z,73.23
2023-09-02T19:39:20.549Z,73.28
2023-09-02T19:41:42.248Z,73.47
2023-09-02T19:44:04.217Z,73.48
2023-09-02T19:46:26.056Z,73.59
2023-09-02T19:48:47.833Z,73.83
2023-09-02T19:51:09.571Z,73.87
2023-09-02T19:53:31.365Z,73.77
2023-09-02T19:55:54.767Z,73.94
2023-09-02T19:58:16.576Z,74.09
2023-09-02T20:00:46.516Z,74.26
2023-09-02T20:03:09.682Z,74.30
2023-09-02T20:05:31.541Z,74.28
2023-09-02T20:07:53.184Z,74.78
2023-09-02T20:10:17.205Z,74.64
2023-09-02T20:12:39.106Z,74.79
2023-09-02T20:15:00.781Z,74.65
2023-09-02T20:17:22.470Z,75.09
2023-09-02T20:19:44.292Z,74.89
2023-09-02T20:22:06.275Z,75.23
2023-09-02T20:24:29.007Z,75.12
2023-09-02T20:26:52.268Z,75.19
2023-09-02T20:29:13.907Z,75.37
2023-09-02T20:31:35.570Z,75.47
2023-09-02T20:33:57.475Z,75.60
2023-09-02T20:36:20.705Z,75.98
2023-09-02T20:38:46.274Z,75.64
2023-09-02T20:41:08.032Z,75.66
2023-09-02T20:43:29.655Z,75.52
2023-09-02T20:45:51.362Z,75.71
2023-09-02T20:48:13.214Z,75.79
2023-09-02T20:50:40.221Z,75.66
2023-09-02T20:53:01.854Z,75.78
2023-09-02T20:55:23.747Z,75.74
2023-09-02T20:57:46.259Z,75.88
2023-09-02T21:00:08.705Z,76.15
2023-09-02T21:02:30.541Z,76.38
2023-09-02T21:04:52.322Z,76.45
2023-09-02T21:07:14.134Z,76.58
2023-09-02T21:09:35.759Z,76.61
2023-09-02T21:11:57.460Z,76.96
2023-09-02T21:14:19.151Z,76.76
2023-09-02T21:16:40.934Z,76.72
2023-09-02T21:19:02.634Z,76.67
2023-09-02T21:21:24.471Z,76.74
2023-09-02T21:23:46.287Z,76.79
2023-09-02T21:26:12.463Z,76.95
2023-09-02T21:28:37.875Z,76.85
2023-09-02T21:30:59.540Z,76.88
2023-09-02T21:33:21.235Z,77.06
2023-09-02T21:35:42.856Z,76.99
2023-09-02T21:38:04.836Z,76.92
2023-09-02T21:40:26.658Z,76.93
2023-09-02T21:42:48.305Z,77.10
2023-09-02T21:45:10.647Z,77.30
2023-09-02T21:47:32.519Z,77.24
2023-09-02T21:49:54.297Z,77.40
2023-09-02T21:52:22.682Z,77.31
2023-09-02T21:54:45.733Z,77.37
2023-09-02T21:57:07.558Z,77.53
2023-09-02T21:59:29.221Z,77.23
2023-09-02T22:01:50.974Z,77.32
2023-09-02T22:04:12.700Z,77.70
2023-09-02T22:06:35.043Z,77.75
2023-09-02T22:08:57.111Z,77.95
2023-09-02T22:11:19.574Z,77.70
2023-09-02T22:13:45.036Z,77.81
2023-09-02T22:16:07.628Z,77.80
2023-09-02T22:18:29.961Z,77.85
2023-09-02T22:20:53.818Z,77.74
2023-09-02T22:23:15.783Z,77.99
2023-09-02T22:25:39.087Z,77.87
2023-09-02T22:28:00.732Z,77.86
2023-09-02T22:30:22.380Z,78.02
2023-09-02T22:32:44.124Z,78.10
2023-09-02T22:35:06.345Z,78.23
2023-09-02T22:37:28.026Z,78.48
2023-09-02T22:39:49.759Z,78.42
2023-09-02T22:42:11.415Z,78.54
2023-09-02T22:44:33.070Z,78.74
2023-09-02T22:46:55.201Z,78.76
2023-09-02T22:49:28.323Z,78.79
2023-09-02T22:51:49.961Z,78.61
2023-09-02T22:54:11.597Z,78.98
2023-09-02T22:56:33.303Z,79.03
2023-09-02T22:58:55.072Z,79.27
2023-09-02T23:01:16.722Z,79.20
2023-09-02T23:03:38.793Z,79.45
2023-09-02T23:06:10.470Z,79.56
2023-09-02T23:08:32.982Z,79.64
2023-09-02T23:10:59.021Z,79.66
2023-09-02T23:13:20.966Z,79.62
2023-09-02T23:15:42.919Z,79.70
2023-09-02T23:18:05.001Z,79.57
2023-09-02T23:20:28.836Z,79.64
2023-09-02T23:22:51.690Z,79.61
2023-09-02T23:25:14.252Z,79.52
2023-09-02T23:27:35.942Z,79.52
2023-09-02T23:29:58.436Z,79.56
2023-09-02T23:32:21.722Z,79.54
2023-09-02T23:34:43.374Z,79.48
2023-09-02T23:37:05.532Z,79.38
2023-09-02T23:39:27.240Z,79.36
2023-09-02T23:41:48.877Z,79.27
2023-09-02T23:44:10.541Z,79.19
2023-09-02T23:46:32.313Z,79.61
2023-09-02T23:48:54.173Z,79.55
2023-09-02T23:51:15.863Z,79.70
2023-09-02T23:53:38.653Z,79.86
2023-09-02T23:56:00.295Z,79.77
2023-09-02T23:58:22.223Z,79.69
